sensor_id;sensor_type;location;lat;lon;timestamp;P1;durP1;ratioP1;P2;durP2;ratioP2
20441;SDS011;10380;52.102;20.614;2024-03-08T00:00:09;64.97;;;35.50;;
20441;SDS011;10380;52.102;20.614;2024-03-08T00:02:42;67.77;;;36.47;;
20441;SDS011;10380;52.102;20.614;2024-03-08T00:05:10;63.07;;;35.47;;
20441;SDS011;10380;52.102;20.614;2024-03-08T00:07:37;66.00;;;35.90;;
20441;SDS011;10380;52.102;20.614;2024-03-08T00:10:06;59.23;;;34.40;;
20441;SDS011;10380;52.102;20.614;2024-03-08T00:12:42;61.77;;;32.37;;
20441;SDS011;10380;52.102;20.614;2024-03-08T00:15:10;74.63;;;34.50;;
20441;SDS011;10380;52.102;20.614;2024-03-08T00:17:42;67.23;;;34.40;;
20441;SDS011;10380;52.102;20.614;2024-03-08T00:20:10;59.63;;;34.30;;
20441;SDS011;10380;52.102;20.614;2024-03-08T00:22:37;60.93;;;31.47;;
20441;SDS011;10380;52.102;20.614;2024-03-08T00:25:05;63.27;;;32.63;;
20441;SDS011;10380;52.102;20.614;2024-03-08T00:27:35;59.43;;;32.00;;
20441;SDS011;10380;52.102;20.614;2024-03-08T00:30:03;67.47;;;33.63;;
20441;SDS011;10380;52.102;20.614;2024-03-08T00:32:30;57.47;;;32.80;;
20441;SDS011;10380;52.102;20.614;2024-03-08T00:34:58;67.03;;;35.20;;
20441;SDS011;10380;52.102;20.614;2024-03-08T00:37:25;66.70;;;36.27;;
20441;SDS011;10380;52.102;20.614;2024-03-08T00:39:53;60.13;;;30.60;;
20441;SDS011;10380;52.102;20.614;2024-03-08T00:42:20;66.83;;;34.30;;
20441;SDS011;10380;52.102;20.614;2024-03-08T00:44:48;67.67;;;34.33;;
20441;SDS011;10380;52.102;20.614;2024-03-08T00:47:17;76.23;;;37.97;;
20441;SDS011;10380;52.102;20.614;2024-03-08T00:49:45;86.77;;;42.93;;
20441;SDS011;10380;52.102;20.614;2024-03-08T00:52:13;94.70;;;44.03;;
20441;SDS011;10380;52.102;20.614;2024-03-08T00:54:41;75.60;;;36.77;;
20441;SDS011;10380;52.102;20.614;2024-03-08T00:57:09;70.47;;;34.97;;
20441;SDS011;10380;52.102;20.614;2024-03-08T00:59:40;56.20;;;32.03;;
20441;SDS011;10380;52.102;20.614;2024-03-08T01:02:07;62.10;;;34.90;;
20441;SDS011;10380;52.102;20.614;2024-03-08T01:04:37;60.60;;;31.60;;
20441;SDS011;10380;52.102;20.614;2024-03-08T01:07:04;62.53;;;31.53;;
20441;SDS011;10380;52.102;20.614;2024-03-08T01:09:32;65.07;;;31.63;;
20441;SDS011;10380;52.102;20.614;2024-03-08T01:11:59;60.37;;;31.37;;
20441;SDS011;10380;52.102;20.614;2024-03-08T01:14:27;55.27;;;30.20;;
20441;SDS011;10380;52.102;20.614;2024-03-08T01:16:56;63.50;;;31.13;;
20441;SDS011;10380;52.102;20.614;2024-03-08T01:19:24;62.27;;;30.33;;
20441;SDS011;10380;52.102;20.614;2024-03-08T01:21:51;68.40;;;32.83;;
20441;SDS011;10380;52.102;20.614;2024-03-08T01:24:18;59.07;;;32.53;;
20441;SDS011;10380;52.102;20.614;2024-03-08T01:26:45;63.73;;;32.03;;
20441;SDS011;10380;52.102;20.614;2024-03-08T01:29:13;55.93;;;31.00;;
20441;SDS011;10380;52.102;20.614;2024-03-08T01:31:40;58.83;;;31.83;;
20441;SDS011;10380;52.102;20.614;2024-03-08T01:34:08;66.40;;;32.07;;
20441;SDS011;10380;52.102;20.614;2024-03-08T01:36:36;62.53;;;32.07;;
20441;SDS011;10380;52.102;20.614;2024-03-08T01:39:06;67.93;;;33.77;;
20441;SDS011;10380;52.102;20.614;2024-03-08T01:41:35;67.47;;;35.13;;
20441;SDS011;10380;52.102;20.614;2024-03-08T01:44:02;70.27;;;35.10;;
20441;SDS011;10380;52.102;20.614;2024-03-08T01:46:30;81.03;;;39.67;;
20441;SDS011;10380;52.102;20.614;2024-03-08T01:48:57;93.67;;;45.43;;
20441;SDS011;10380;52.102;20.614;2024-03-08T01:51:28;101.40;;;43.87;;
20441;SDS011;10380;52.102;20.614;2024-03-08T01:53:55;118.57;;;46.40;;
20441;SDS011;10380;52.102;20.614;2024-03-08T01:56:24;103.83;;;43.67;;
20441;SDS011;10380;52.102;20.614;2024-03-08T01:58:52;103.80;;;46.40;;
20441;SDS011;10380;52.102;20.614;2024-03-08T02:01:19;124.27;;;46.37;;
20441;SDS011;10380;52.102;20.614;2024-03-08T02:03:46;111.60;;;48.47;;
20441;SDS011;10380;52.102;20.614;2024-03-08T02:06:13;113.03;;;48.90;;
20441;SDS011;10380;52.102;20.614;2024-03-08T02:08:43;117.60;;;47.83;;
20441;SDS011;10380;52.102;20.614;2024-03-08T02:11:11;127.87;;;49.43;;
20441;SDS011;10380;52.102;20.614;2024-03-08T02:13:39;113.77;;;45.23;;
20441;SDS011;10380;52.102;20.614;2024-03-08T02:16:06;106.43;;;47.70;;
20441;SDS011;10380;52.102;20.614;2024-03-08T02:18:35;119.83;;;47.30;;
20441;SDS011;10380;52.102;20.614;2024-03-08T02:21:03;106.73;;;45.63;;
20441;SDS011;10380;52.102;20.614;2024-03-08T02:23:32;107.70;;;46.23;;
20441;SDS011;10380;52.102;20.614;2024-03-08T02:25:59;98.20;;;43.30;;
20441;SDS011;10380;52.102;20.614;2024-03-08T02:28:27;102.23;;;42.33;;
20441;SDS011;10380;52.102;20.614;2024-03-08T02:30:55;83.97;;;39.10;;
20441;SDS011;10380;52.102;20.614;2024-03-08T02:33:24;85.40;;;37.97;;
20441;SDS011;10380;52.102;20.614;2024-03-08T02:35:51;86.53;;;40.00;;
20441;SDS011;10380;52.102;20.614;2024-03-08T02:38:19;89.03;;;39.67;;
20441;SDS011;10380;52.102;20.614;2024-03-08T02:40:49;96.87;;;44.13;;
20441;SDS011;10380;52.102;20.614;2024-03-08T02:43:18;90.23;;;39.17;;
20441;SDS011;10380;52.102;20.614;2024-03-08T02:45:46;85.87;;;39.57;;
20441;SDS011;10380;52.102;20.614;2024-03-08T02:48:13;82.07;;;37.37;;
20441;SDS011;10380;52.102;20.614;2024-03-08T02:50:43;77.93;;;36.43;;
20441;SDS011;10380;52.102;20.614;2024-03-08T02:53:11;85.57;;;37.53;;
20441;SDS011;10380;52.102;20.614;2024-03-08T02:55:40;74.20;;;35.30;;
20441;SDS011;10380;52.102;20.614;2024-03-08T02:58:08;76.57;;;36.37;;
20441;SDS011;10380;52.102;20.614;2024-03-08T03:00:37;85.43;;;37.57;;
20441;SDS011;10380;52.102;20.614;2024-03-08T03:03:05;82.37;;;35.07;;
20441;SDS011;10380;52.102;20.614;2024-03-08T03:05:33;72.17;;;38.07;;
20441;SDS011;10380;52.102;20.614;2024-03-08T03:08:00;80.93;;;35.83;;
20441;SDS011;10380;52.102;20.614;2024-03-08T03:10:30;85.47;;;36.67;;
20441;SDS011;10380;52.102;20.614;2024-03-08T03:12:57;72.67;;;35.40;;
20441;SDS011;10380;52.102;20.614;2024-03-08T03:15:24;72.23;;;35.90;;
20441;SDS011;10380;52.102;20.614;2024-03-08T03:17:53;79.57;;;36.40;;
20441;SDS011;10380;52.102;20.614;2024-03-08T03:20:22;80.03;;;36.97;;
20441;SDS011;10380;52.102;20.614;2024-03-08T03:23:00;73.47;;;34.33;;
20441;SDS011;10380;52.102;20.614;2024-03-08T03:25:29;74.93;;;35.30;;
20441;SDS011;10380;52.102;20.614;2024-03-08T03:28:03;75.07;;;34.77;;
20441;SDS011;10380;52.102;20.614;2024-03-08T03:30:31;72.03;;;34.13;;
20441;SDS011;10380;52.102;20.614;2024-03-08T03:33:01;82.03;;;35.13;;
20441;SDS011;10380;52.102;20.614;2024-03-08T03:35:34;80.20;;;34.03;;
20441;SDS011;10380;52.102;20.614;2024-03-08T03:38:03;83.93;;;35.73;;
20441;SDS011;10380;52.102;20.614;2024-03-08T03:40:37;76.73;;;35.43;;
20441;SDS011;10380;52.102;20.614;2024-03-08T03:43:05;66.83;;;33.33;;
20441;SDS011;10380;52.102;20.614;2024-03-08T03:45:33;77.17;;;33.17;;
20441;SDS011;10380;52.102;20.614;2024-03-08T03:48:03;67.43;;;35.20;;
20441;SDS011;10380;52.102;20.614;2024-03-08T03:50:36;65.00;;;31.13;;
20441;SDS011;10380;52.102;20.614;2024-03-08T03:53:04;63.73;;;31.80;;
20441;SDS011;10380;52.102;20.614;2024-03-08T03:55:35;66.27;;;32.33;;
20441;SDS011;10380;52.102;20.614;2024-03-08T03:58:03;62.93;;;30.93;;
20441;SDS011;10380;52.102;20.614;2024-03-08T04:00:30;65.73;;;29.67;;
20441;SDS011;10380;52.102;20.614;2024-03-08T04:02:57;56.40;;;30.57;;
20441;SDS011;10380;52.102;20.614;2024-03-08T04:05:27;65.63;;;28.20;;
20441;SDS011;10380;52.102;20.614;2024-03-08T04:07:55;68.60;;;29.43;;
20441;SDS011;10380;52.102;20.614;2024-03-08T04:10:23;51.00;;;26.73;;
20441;SDS011;10380;52.102;20.614;2024-03-08T04:12:50;49.20;;;25.93;;
20441;SDS011;10380;52.102;20.614;2024-03-08T04:15:18;57.63;;;26.80;;
20441;SDS011;10380;52.102;20.614;2024-03-08T04:17:47;51.63;;;26.13;;
20441;SDS011;10380;52.102;20.614;2024-03-08T04:20:14;52.90;;;28.07;;
20441;SDS011;10380;52.102;20.614;2024-03-08T04:22:42;45.10;;;25.53;;
20441;SDS011;10380;52.102;20.614;2024-03-08T04:25:11;52.77;;;26.43;;
20441;SDS011;10380;52.102;20.614;2024-03-08T04:27:38;51.63;;;27.10;;
20441;SDS011;10380;52.102;20.614;2024-03-08T04:30:07;50.13;;;24.70;;
20441;SDS011;10380;52.102;20.614;2024-03-08T04:32:35;58.33;;;28.63;;
20441;SDS011;10380;52.102;20.614;2024-03-08T04:35:02;56.40;;;27.23;;
20441;SDS011;10380;52.102;20.614;2024-03-08T04:37:30;50.90;;;26.80;;
20441;SDS011;10380;52.102;20.614;2024-03-08T04:39:58;54.07;;;27.03;;
20441;SDS011;10380;52.102;20.614;2024-03-08T04:42:28;67.43;;;30.07;;
20441;SDS011;10380;52.102;20.614;2024-03-08T04:44:59;54.63;;;27.30;;
20441;SDS011;10380;52.102;20.614;2024-03-08T04:47:27;64.83;;;30.00;;
20441;SDS011;10380;52.102;20.614;2024-03-08T04:49:54;52.53;;;25.93;;
20441;SDS011;10380;52.102;20.614;2024-03-08T04:52:22;54.00;;;27.57;;
20441;SDS011;10380;52.102;20.614;2024-03-08T04:54:49;61.80;;;26.63;;
20441;SDS011;10380;52.102;20.614;2024-03-08T04:57:17;52.17;;;26.90;;
20441;SDS011;10380;52.102;20.614;2024-03-08T04:59:45;50.90;;;26.40;;
20441;SDS011;10380;52.102;20.614;2024-03-08T05:02:13;57.03;;;25.77;;
20441;SDS011;10380;52.102;20.614;2024-03-08T05:04:40;60.90;;;27.03;;
20441;SDS011;10380;52.102;20.614;2024-03-08T05:07:09;60.90;;;26.67;;
20441;SDS011;10380;52.102;20.614;2024-03-08T05:09:36;54.63;;;27.20;;
20441;SDS011;10380;52.102;20.614;2024-03-08T05:12:04;60.83;;;26.03;;
20441;SDS011;10380;52.102;20.614;2024-03-08T05:14:31;56.70;;;27.40;;
20441;SDS011;10380;52.102;20.614;2024-03-08T05:16:59;52.37;;;28.20;;
20441;SDS011;10380;52.102;20.614;2024-03-08T05:19:27;54.87;;;26.73;;
20441;SDS011;10380;52.102;20.614;2024-03-08T05:22:00;60.03;;;26.87;;
20441;SDS011;10380;52.102;20.614;2024-03-08T05:24:27;58.93;;;27.83;;
20441;SDS011;10380;52.102;20.614;2024-03-08T05:26:57;62.63;;;29.97;;
20441;SDS011;10380;52.102;20.614;2024-03-08T05:29:27;57.27;;;27.60;;
20441;SDS011;10380;52.102;20.614;2024-03-08T05:31:55;52.67;;;27.63;;
20441;SDS011;10380;52.102;20.614;2024-03-08T05:34:24;59.63;;;30.40;;
20441;SDS011;10380;52.102;20.614;2024-03-08T05:36:52;59.80;;;28.97;;
20441;SDS011;10380;52.102;20.614;2024-03-08T05:39:21;57.73;;;28.00;;
20441;SDS011;10380;52.102;20.614;2024-03-08T05:41:49;57.33;;;29.33;;
20441;SDS011;10380;52.102;20.614;2024-03-08T05:44:17;62.30;;;29.27;;
20441;SDS011;10380;52.102;20.614;2024-03-08T05:46:44;57.87;;;28.73;;
20441;SDS011;10380;52.102;20.614;2024-03-08T05:49:13;56.60;;;29.10;;
20441;SDS011;10380;52.102;20.614;2024-03-08T05:51:40;60.80;;;28.83;;
20441;SDS011;10380;52.102;20.614;2024-03-08T05:54:09;66.73;;;29.13;;
20441;SDS011;10380;52.102;20.614;2024-03-08T05:56:40;77.83;;;38.17;;
20441;SDS011;10380;52.102;20.614;2024-03-08T05:59:11;76.27;;;39.07;;
20441;SDS011;10380;52.102;20.614;2024-03-08T06:01:39;70.50;;;37.00;;
20441;SDS011;10380;52.102;20.614;2024-03-08T06:04:09;70.50;;;35.03;;
20441;SDS011;10380;52.102;20.614;2024-03-08T06:06:38;70.00;;;37.37;;
20441;SDS011;10380;52.102;20.614;2024-03-08T06:09:06;79.37;;;37.27;;
20441;SDS011;10380;52.102;20.614;2024-03-08T06:11:39;70.27;;;35.67;;
20441;SDS011;10380;52.102;20.614;2024-03-08T06:14:06;68.13;;;37.27;;
20441;SDS011;10380;52.102;20.614;2024-03-08T06:16:33;75.80;;;38.00;;
20441;SDS011;10380;52.102;20.614;2024-03-08T06:19:02;78.77;;;39.93;;
20441;SDS011;10380;52.102;20.614;2024-03-08T06:21:29;76.33;;;38.27;;
20441;SDS011;10380;52.102;20.614;2024-03-08T06:23:58;78.80;;;38.93;;
20441;SDS011;10380;52.102;20.614;2024-03-08T06:26:26;84.37;;;39.93;;
20441;SDS011;10380;52.102;20.614;2024-03-08T06:28:58;71.00;;;37.90;;
20441;SDS011;10380;52.102;20.614;2024-03-08T06:31:25;75.40;;;36.63;;
20441;SDS011;10380;52.102;20.614;2024-03-08T06:33:52;66.97;;;35.27;;
20441;SDS011;10380;52.102;20.614;2024-03-08T06:36:24;76.07;;;35.90;;
20441;SDS011;10380;52.102;20.614;2024-03-08T06:38:51;71.50;;;34.17;;
20441;SDS011;10380;52.102;20.614;2024-03-08T06:41:19;74.80;;;37.13;;
20441;SDS011;10380;52.102;20.614;2024-03-08T06:43:47;68.07;;;34.07;;
20441;SDS011;10380;52.102;20.614;2024-03-08T06:46:15;79.27;;;40.70;;
20441;SDS011;10380;52.102;20.614;2024-03-08T06:48:43;85.03;;;41.37;;
20441;SDS011;10380;52.102;20.614;2024-03-08T06:51:12;89.17;;;41.93;;
20441;SDS011;10380;52.102;20.614;2024-03-08T06:53:40;82.67;;;41.90;;
20441;SDS011;10380;52.102;20.614;2024-03-08T06:56:08;84.10;;;44.00;;
20441;SDS011;10380;52.102;20.614;2024-03-08T06:58:35;87.43;;;45.03;;
20441;SDS011;10380;52.102;20.614;2024-03-08T07:01:02;86.63;;;43.00;;
20441;SDS011;10380;52.102;20.614;2024-03-08T07:03:34;77.10;;;41.80;;
20441;SDS011;10380;52.102;20.614;2024-03-08T07:06:01;78.23;;;40.10;;
20441;SDS011;10380;52.102;20.614;2024-03-08T07:08:30;73.63;;;40.20;;
20441;SDS011;10380;52.102;20.614;2024-03-08T07:10:57;82.00;;;39.07;;
20441;SDS011;10380;52.102;20.614;2024-03-08T07:13:26;73.30;;;37.53;;
20441;SDS011;10380;52.102;20.614;2024-03-08T07:15:56;74.53;;;38.63;;
20441;SDS011;10380;52.102;20.614;2024-03-08T07:18:27;81.37;;;40.80;;
20441;SDS011;10380;52.102;20.614;2024-03-08T07:20:57;75.73;;;39.43;;
20441;SDS011;10380;52.102;20.614;2024-03-08T07:23:25;81.47;;;40.50;;
20441;SDS011;10380;52.102;20.614;2024-03-08T07:26:14;77.77;;;40.87;;
20441;SDS011;10380;52.102;20.614;2024-03-08T07:28:42;83.53;;;42.47;;
20441;SDS011;10380;52.102;20.614;2024-03-08T07:31:09;68.63;;;40.80;;
20441;SDS011;10380;52.102;20.614;2024-03-08T07:33:43;80.50;;;43.43;;
20441;SDS011;10380;52.102;20.614;2024-03-08T07:36:10;77.80;;;41.30;;
20441;SDS011;10380;52.102;20.614;2024-03-08T07:38:38;74.60;;;41.27;;
20441;SDS011;10380;52.102;20.614;2024-03-08T07:41:05;77.93;;;43.27;;
20441;SDS011;10380;52.102;20.614;2024-03-08T07:43:32;75.30;;;40.80;;
20441;SDS011;10380;52.102;20.614;2024-03-08T07:45:59;78.80;;;41.67;;
20441;SDS011;10380;52.102;20.614;2024-03-08T07:48:27;78.43;;;40.67;;
20441;SDS011;10380;52.102;20.614;2024-03-08T07:50:54;75.53;;;40.97;;
20441;SDS011;10380;52.102;20.614;2024-03-08T07:53:22;70.80;;;36.47;;
20441;SDS011;10380;52.102;20.614;2024-03-08T07:55:53;74.10;;;38.40;;
20441;SDS011;10380;52.102;20.614;2024-03-08T07:58:20;66.90;;;39.03;;
20441;SDS011;10380;52.102;20.614;2024-03-08T08:00:47;71.80;;;40.33;;
20441;SDS011;10380;52.102;20.614;2024-03-08T08:03:15;71.40;;;39.70;;
20441;SDS011;10380;52.102;20.614;2024-03-08T08:05:44;73.60;;;39.67;;
20441;SDS011;10380;52.102;20.614;2024-03-08T08:08:12;78.27;;;39.57;;
20441;SDS011;10380;52.102;20.614;2024-03-08T08:10:39;67.33;;;38.00;;
20441;SDS011;10380;52.102;20.614;2024-03-08T08:13:06;73.60;;;38.47;;
20441;SDS011;10380;52.102;20.614;2024-03-08T08:15:34;71.50;;;36.63;;
20441;SDS011;10380;52.102;20.614;2024-03-08T08:18:01;66.93;;;37.83;;
20441;SDS011;10380;52.102;20.614;2024-03-08T08:20:33;69.07;;;36.83;;
20441;SDS011;10380;52.102;20.614;2024-03-08T08:23:00;62.30;;;34.47;;
20441;SDS011;10380;52.102;20.614;2024-03-08T08:25:27;66.93;;;36.23;;
20441;SDS011;10380;52.102;20.614;2024-03-08T08:27:54;62.80;;;37.07;;
20441;SDS011;10380;52.102;20.614;2024-03-08T08:30:21;60.20;;;36.73;;
20441;SDS011;10380;52.102;20.614;2024-03-08T08:32:49;66.73;;;34.70;;
20441;SDS011;10380;52.102;20.614;2024-03-08T08:35:16;64.97;;;35.73;;
20441;SDS011;10380;52.102;20.614;2024-03-08T08:37:45;64.67;;;33.97;;
20441;SDS011;10380;52.102;20.614;2024-03-08T08:40:12;62.07;;;33.53;;
20441;SDS011;10380;52.102;20.614;2024-03-08T08:42:44;64.50;;;32.27;;
20441;SDS011;10380;52.102;20.614;2024-03-08T08:45:15;55.90;;;30.67;;
20441;SDS011;10380;52.102;20.614;2024-03-08T08:47:50;59.97;;;33.27;;
20441;SDS011;10380;52.102;20.614;2024-03-08T08:50:17;57.13;;;31.47;;
20441;SDS011;10380;52.102;20.614;2024-03-08T08:52:51;52.23;;;31.60;;
20441;SDS011;10380;52.102;20.614;2024-03-08T08:55:20;53.90;;;30.20;;
20441;SDS011;10380;52.102;20.614;2024-03-08T08:57:48;54.73;;;33.07;;
20441;SDS011;10380;52.102;20.614;2024-03-08T09:00:15;48.03;;;29.20;;
20441;SDS011;10380;52.102;20.614;2024-03-08T09:02:42;56.93;;;30.80;;
20441;SDS011;10380;52.102;20.614;2024-03-08T09:05:09;60.40;;;31.43;;
20441;SDS011;10380;52.102;20.614;2024-03-08T09:07:43;58.47;;;31.33;;
20441;SDS011;10380;52.102;20.614;2024-03-08T09:10:11;48.20;;;27.97;;
20441;SDS011;10380;52.102;20.614;2024-03-08T09:12:44;47.20;;;27.83;;
20441;SDS011;10380;52.102;20.614;2024-03-08T09:15:11;45.80;;;27.43;;
20441;SDS011;10380;52.102;20.614;2024-03-08T09:17:39;38.17;;;22.70;;
20441;SDS011;10380;52.102;20.614;2024-03-08T09:20:08;37.27;;;21.00;;
20441;SDS011;10380;52.102;20.614;2024-03-08T09:22:37;44.17;;;23.10;;
20441;SDS011;10380;52.102;20.614;2024-03-08T09:25:04;37.97;;;20.80;;
20441;SDS011;10380;52.102;20.614;2024-03-08T09:27:32;38.23;;;21.13;;
20441;SDS011;10380;52.102;20.614;2024-03-08T09:30:04;38.93;;;21.30;;
20441;SDS011;10380;52.102;20.614;2024-03-08T09:32:34;31.70;;;20.93;;
20441;SDS011;10380;52.102;20.614;2024-03-08T09:35:01;37.93;;;21.10;;
20441;SDS011;10380;52.102;20.614;2024-03-08T09:37:29;34.67;;;19.47;;
20441;SDS011;10380;52.102;20.614;2024-03-08T09:39:57;31.63;;;17.07;;
20441;SDS011;10380;52.102;20.614;2024-03-08T09:42:26;28.00;;;16.50;;
20441;SDS011;10380;52.102;20.614;2024-03-08T09:44:53;31.53;;;18.67;;
20441;SDS011;10380;52.102;20.614;2024-03-08T09:47:20;23.30;;;14.83;;
20441;SDS011;10380;52.102;20.614;2024-03-08T09:49:51;32.13;;;17.23;;
20441;SDS011;10380;52.102;20.614;2024-03-08T09:52:19;35.00;;;18.60;;
20441;SDS011;10380;52.102;20.614;2024-03-08T09:54:46;37.40;;;19.20;;
20441;SDS011;10380;52.102;20.614;2024-03-08T09:57:13;35.97;;;18.47;;
20441;SDS011;10380;52.102;20.614;2024-03-08T09:59:43;33.93;;;19.83;;
20441;SDS011;10380;52.102;20.614;2024-03-08T10:02:14;34.93;;;19.30;;
20441;SDS011;10380;52.102;20.614;2024-03-08T10:04:42;28.10;;;17.07;;
20441;SDS011;10380;52.102;20.614;2024-03-08T10:07:13;27.53;;;16.77;;
20441;SDS011;10380;52.102;20.614;2024-03-08T10:09:40;28.27;;;16.10;;
20441;SDS011;10380;52.102;20.614;2024-03-08T10:12:13;26.23;;;16.13;;
20441;SDS011;10380;52.102;20.614;2024-03-08T10:14:41;32.10;;;17.33;;
20441;SDS011;10380;52.102;20.614;2024-03-08T10:17:09;34.97;;;19.13;;
20441;SDS011;10380;52.102;20.614;2024-03-08T10:19:36;30.63;;;18.30;;
20441;SDS011;10380;52.102;20.614;2024-03-08T10:22:03;30.43;;;16.47;;
20441;SDS011;10380;52.102;20.614;2024-03-08T10:24:31;25.17;;;15.03;;
20441;SDS011;10380;52.102;20.614;2024-03-08T10:27:02;23.97;;;15.87;;
20441;SDS011;10380;52.102;20.614;2024-03-08T10:29:31;35.83;;;18.57;;
20441;SDS011;10380;52.102;20.614;2024-03-08T10:31:58;28.13;;;16.97;;
20441;SDS011;10380;52.102;20.614;2024-03-08T10:34:26;33.77;;;16.87;;
20441;SDS011;10380;52.102;20.614;2024-03-08T10:36:53;26.50;;;16.03;;
20441;SDS011;10380;52.102;20.614;2024-03-08T10:39:24;30.60;;;17.50;;
20441;SDS011;10380;52.102;20.614;2024-03-08T10:41:58;30.50;;;19.93;;
20441;SDS011;10380;52.102;20.614;2024-03-08T10:47:18;37.50;;;19.97;;
20441;SDS011;10380;52.102;20.614;2024-03-08T10:52:31;32.70;;;18.90;;
20441;SDS011;10380;52.102;20.614;2024-03-08T10:54:59;35.43;;;19.13;;
20441;SDS011;10380;52.102;20.614;2024-03-08T10:57:28;32.47;;;19.33;;
20441;SDS011;10380;52.102;20.614;2024-03-08T10:59:55;33.43;;;19.13;;
20441;SDS011;10380;52.102;20.614;2024-03-08T11:02:25;35.57;;;19.37;;
20441;SDS011;10380;52.102;20.614;2024-03-08T11:04:53;33.93;;;19.10;;
20441;SDS011;10380;52.102;20.614;2024-03-08T11:07:23;31.30;;;17.50;;
20441;SDS011;10380;52.102;20.614;2024-03-08T11:09:54;35.67;;;17.87;;
20441;SDS011;10380;52.102;20.614;2024-03-08T11:14:59;30.60;;;16.20;;
20441;SDS011;10380;52.102;20.614;2024-03-08T11:19:55;29.63;;;17.43;;
20441;SDS011;10380;52.102;20.614;2024-03-08T11:22:24;32.53;;;17.67;;
20441;SDS011;10380;52.102;20.614;2024-03-08T11:25:02;25.43;;;15.57;;
20441;SDS011;10380;52.102;20.614;2024-03-08T11:27:36;26.00;;;13.87;;
20441;SDS011;10380;52.102;20.614;2024-03-08T11:30:06;27.83;;;16.50;;
20441;SDS011;10380;52.102;20.614;2024-03-08T11:32:44;24.67;;;14.17;;
20441;SDS011;10380;52.102;20.614;2024-03-08T11:35:20;25.13;;;15.23;;
20441;SDS011;10380;52.102;20.614;2024-03-08T11:37:49;27.73;;;15.37;;
20441;SDS011;10380;52.102;20.614;2024-03-08T11:40:17;22.33;;;13.00;;
20441;SDS011;10380;52.102;20.614;2024-03-08T11:42:47;23.03;;;13.87;;
20441;SDS011;10380;52.102;20.614;2024-03-08T11:45:15;24.37;;;13.33;;
20441;SDS011;10380;52.102;20.614;2024-03-08T11:47:44;25.37;;;14.97;;
20441;SDS011;10380;52.102;20.614;2024-03-08T11:50:16;26.47;;;16.27;;
20441;SDS011;10380;52.102;20.614;2024-03-08T11:52:45;31.37;;;13.53;;
20441;SDS011;10380;52.102;20.614;2024-03-08T11:55:13;24.90;;;15.20;;
20441;SDS011;10380;52.102;20.614;2024-03-08T11:57:40;26.07;;;16.07;;
20441;SDS011;10380;52.102;20.614;2024-03-08T12:00:15;24.38;;;14.43;;
20441;SDS011;10380;52.102;20.614;2024-03-08T12:03:04;22.27;;;13.82;;
20441;SDS011;10380;52.102;20.614;2024-03-08T12:05:32;22.88;;;14.77;;
20441;SDS011;10380;52.102;20.614;2024-03-08T12:08:01;32.08;;;19.48;;
20441;SDS011;10380;52.102;20.614;2024-03-08T12:10:29;24.23;;;16.30;;
20441;SDS011;10380;52.102;20.614;2024-03-08T12:12:59;22.42;;;15.35;;
20441;SDS011;10380;52.102;20.614;2024-03-08T12:15:28;28.77;;;15.70;;
20441;SDS011;10380;52.102;20.614;2024-03-08T12:17:55;23.00;;;14.15;;
20441;SDS011;10380;52.102;20.614;2024-03-08T12:20:23;23.90;;;14.20;;
20441;SDS011;10380;52.102;20.614;2024-03-08T12:22:52;20.58;;;13.38;;
20441;SDS011;10380;52.102;20.614;2024-03-08T12:25:20;20.00;;;13.77;;
20441;SDS011;10380;52.102;20.614;2024-03-08T12:27:48;23.17;;;15.25;;
20441;SDS011;10380;52.102;20.614;2024-03-08T12:32:53;28.45;;;16.83;;
20441;SDS011;10380;52.102;20.614;2024-03-08T12:35:24;17.98;;;12.85;;
20441;SDS011;10380;52.102;20.614;2024-03-08T12:37:58;21.30;;;14.40;;
20441;SDS011;10380;52.102;20.614;2024-03-08T12:40:30;22.10;;;13.88;;
20441;SDS011;10380;52.102;20.614;2024-03-08T12:42:58;22.10;;;14.68;;
20441;SDS011;10380;52.102;20.614;2024-03-08T12:45:25;20.63;;;13.68;;
20441;SDS011;10380;52.102;20.614;2024-03-08T12:47:53;25.42;;;15.57;;
20441;SDS011;10380;52.102;20.614;2024-03-08T12:50:21;24.33;;;15.55;;
20441;SDS011;10380;52.102;20.614;2024-03-08T12:52:49;21.67;;;15.60;;
20441;SDS011;10380;52.102;20.614;2024-03-08T12:55:19;21.63;;;15.38;;
20441;SDS011;10380;52.102;20.614;2024-03-08T12:57:46;21.27;;;15.52;;
20441;SDS011;10380;52.102;20.614;2024-03-08T13:00:15;21.17;;;14.18;;
20441;SDS011;10380;52.102;20.614;2024-03-08T13:02:46;20.23;;;14.63;;
20441;SDS011;10380;52.102;20.614;2024-03-08T13:05:13;24.45;;;15.98;;
20441;SDS011;10380;52.102;20.614;2024-03-08T13:07:41;21.52;;;15.68;;
20441;SDS011;10380;52.102;20.614;2024-03-08T13:10:13;25.25;;;15.98;;
20441;SDS011;10380;52.102;20.614;2024-03-08T13:12:42;24.50;;;15.40;;
20441;SDS011;10380;52.102;20.614;2024-03-08T13:15:09;24.20;;;15.55;;
20441;SDS011;10380;52.102;20.614;2024-03-08T13:17:42;24.55;;;15.88;;
20441;SDS011;10380;52.102;20.614;2024-03-08T13:20:11;25.02;;;16.80;;
20441;SDS011;10380;52.102;20.614;2024-03-08T13:22:47;20.55;;;14.75;;
20441;SDS011;10380;52.102;20.614;2024-03-08T13:25:15;24.83;;;16.13;;
20441;SDS011;10380;52.102;20.614;2024-03-08T13:27:42;27.88;;;19.00;;
20441;SDS011;10380;52.102;20.614;2024-03-08T13:30:09;28.08;;;17.45;;
20441;SDS011;10380;52.102;20.614;2024-03-08T13:32:40;22.63;;;16.17;;
20441;SDS011;10380;52.102;20.614;2024-03-08T13:35:10;26.50;;;15.52;;
20441;SDS011;10380;52.102;20.614;2024-03-08T13:37:40;25.45;;;16.80;;
20441;SDS011;10380;52.102;20.614;2024-03-08T13:40:08;24.85;;;16.52;;
20441;SDS011;10380;52.102;20.614;2024-03-08T13:42:48;19.60;;;14.95;;
20441;SDS011;10380;52.102;20.614;2024-03-08T13:45:15;23.92;;;16.60;;
20441;SDS011;10380;52.102;20.614;2024-03-08T13:47:50;25.08;;;15.85;;
20441;SDS011;10380;52.102;20.614;2024-03-08T13:50:18;25.63;;;15.93;;
20441;SDS011;10380;52.102;20.614;2024-03-08T13:52:48;24.20;;;17.02;;
20441;SDS011;10380;52.102;20.614;2024-03-08T13:55:20;24.73;;;16.42;;
20441;SDS011;10380;52.102;20.614;2024-03-08T13:57:54;27.48;;;17.80;;
20441;SDS011;10380;52.102;20.614;2024-03-08T14:00:21;26.42;;;16.60;;
20441;SDS011;10380;52.102;20.614;2024-03-08T14:02:49;24.33;;;17.40;;
20441;SDS011;10380;52.102;20.614;2024-03-08T14:05:16;24.75;;;15.82;;
20441;SDS011;10380;52.102;20.614;2024-03-08T14:07:46;25.90;;;16.48;;
20441;SDS011;10380;52.102;20.614;2024-03-08T14:10:16;25.48;;;16.00;;
20441;SDS011;10380;52.102;20.614;2024-03-08T14:12:47;25.77;;;16.60;;
20441;SDS011;10380;52.102;20.614;2024-03-08T14:15:17;29.45;;;15.48;;
20441;SDS011;10380;52.102;20.614;2024-03-08T14:17:44;25.05;;;16.25;;
20441;SDS011;10380;52.102;20.614;2024-03-08T14:20:13;25.10;;;16.08;;
20441;SDS011;10380;52.102;20.614;2024-03-08T14:22:41;23.13;;;15.15;;
20441;SDS011;10380;52.102;20.614;2024-03-08T14:25:08;28.77;;;16.55;;
20441;SDS011;10380;52.102;20.614;2024-03-08T14:27:44;23.45;;;14.80;;
20441;SDS011;10380;52.102;20.614;2024-03-08T14:30:12;25.88;;;15.65;;